sensor_id;sensor_type;location;lat;lon;timestamp;P1;durP1;ratioP1;P2;durP2;ratioP2
25191;SDS011;13143;50.924;5.320;2023-05-29T00:01:22;16.63;;;5.85;;
25191;SDS011;13143;50.924;5.320;2023-05-29T00:03:49;13.95;;;6.70;;
25191;SDS011;13143;50.924;5.320;2023-05-29T00:06:16;15.77;;;6.50;;
25191;SDS011;13143;50.924;5.320;2023-05-29T00:08:43;16.73;;;6.90;;
25191;SDS011;13143;50.924;5.320;2023-05-29T00:11:09;15.82;;;7.18;;
25191;SDS011;13143;50.924;5.320;2023-05-29T00:13:36;15.27;;;6.85;;
25191;SDS011;13143;50.924;5.320;2023-05-29T00:16:02;14.13;;;6.65;;
25191;SDS011;13143;50.924;5.320;2023-05-29T00:18:29;12.35;;;6.18;;
25191;SDS011;13143;50.924;5.320;2023-05-29T00:20:55;17.77;;;6.85;;
25191;SDS011;13143;50.924;5.320;2023-05-29T00:23:21;12.45;;;6.80;;
25191;SDS011;13143;50.924;5.320;2023-05-29T00:25:47;17.40;;;7.30;;
25191;SDS011;13143;50.924;5.320;2023-05-29T00:28:13;14.65;;;7.20;;
25191;SDS011;13143;50.924;5.320;2023-05-29T00:30:40;19.30;;;7.20;;
25191;SDS011;13143;50.924;5.320;2023-05-29T00:33:06;16.88;;;6.75;;
25191;SDS011;13143;50.924;5.320;2023-05-29T00:35:33;17.38;;;7.15;;
25191;SDS011;13143;50.924;5.320;2023-05-29T00:37:59;15.60;;;7.57;;
25191;SDS011;13143;50.924;5.320;2023-05-29T00:40:26;13.95;;;7.30;;
25191;SDS011;13143;50.924;5.320;2023-05-29T00:42:52;20.33;;;7.68;;
25191;SDS011;13143;50.924;5.320;2023-05-29T00:45:18;12.27;;;7.30;;
25191;SDS011;13143;50.924;5.320;2023-05-29T00:47:44;17.85;;;7.57;;
25191;SDS011;13143;50.924;5.320;2023-05-29T00:50:11;17.95;;;8.10;;
25191;SDS011;13143;50.924;5.320;2023-05-29T00:52:39;14.18;;;7.45;;
25191;SDS011;13143;50.924;5.320;2023-05-29T00:55:08;14.38;;;7.22;;
25191;SDS011;13143;50.924;5.320;2023-05-29T00:57:35;13.68;;;7.45;;
25191;SDS011;13143;50.924;5.320;2023-05-29T01:00:03;16.55;;;7.78;;
25191;SDS011;13143;50.924;5.320;2023-05-29T01:02:34;17.00;;;7.57;;
25191;SDS011;13143;50.924;5.320;2023-05-29T01:05:02;18.25;;;7.65;;
25191;SDS011;13143;50.924;5.320;2023-05-29T01:07:28;15.95;;;7.75;;
25191;SDS011;13143;50.924;5.320;2023-05-29T01:09:54;17.90;;;7.53;;
25191;SDS011;13143;50.924;5.320;2023-05-29T01:12:31;13.60;;;7.90;;
25191;SDS011;13143;50.924;5.320;2023-05-29T01:17:47;17.58;;;9.20;;
25191;SDS011;13143;50.924;5.320;2023-05-29T01:20:27;14.38;;;7.93;;
25191;SDS011;13143;50.924;5.320;2023-05-29T01:23:06;15.70;;;8.63;;
25191;SDS011;13143;50.924;5.320;2023-05-29T01:28:22;21.15;;;8.85;;
25191;SDS011;13143;50.924;5.320;2023-05-29T01:30:53;15.68;;;9.13;;
25191;SDS011;13143;50.924;5.320;2023-05-29T01:33:20;16.30;;;8.05;;
25191;SDS011;13143;50.924;5.320;2023-05-29T01:35:46;16.95;;;8.63;;
25191;SDS011;13143;50.924;5.320;2023-05-29T01:38:12;18.88;;;8.55;;
25191;SDS011;13143;50.924;5.320;2023-05-29T01:40:38;18.30;;;8.40;;
25191;SDS011;13143;50.924;5.320;2023-05-29T01:43:04;22.10;;;8.98;;
25191;SDS011;13143;50.924;5.320;2023-05-29T01:45:32;22.00;;;8.73;;
25191;SDS011;13143;50.924;5.320;2023-05-29T01:47:59;20.83;;;9.98;;
25191;SDS011;13143;50.924;5.320;2023-05-29T01:50:25;14.52;;;8.70;;
25191;SDS011;13143;50.924;5.320;2023-05-29T01:52:53;19.65;;;9.05;;
25191;SDS011;13143;50.924;5.320;2023-05-29T01:55:19;20.17;;;10.18;;
25191;SDS011;13143;50.924;5.320;2023-05-29T01:57:45;17.48;;;9.85;;
25191;SDS011;13143;50.924;5.320;2023-05-29T02:00:13;18.73;;;10.23;;
25191;SDS011;13143;50.924;5.320;2023-05-29T02:02:42;22.48;;;10.77;;
25191;SDS011;13143;50.924;5.320;2023-05-29T02:05:09;24.17;;;10.00;;
25191;SDS011;13143;50.924;5.320;2023-05-29T02:07:36;22.05;;;9.95;;
25191;SDS011;13143;50.924;5.320;2023-05-29T02:10:05;19.92;;;9.98;;
25191;SDS011;13143;50.924;5.320;2023-05-29T02:12:31;20.35;;;9.90;;
25191;SDS011;13143;50.924;5.320;2023-05-29T02:14:57;19.38;;;9.82;;
25191;SDS011;13143;50.924;5.320;2023-05-29T02:17:24;17.55;;;8.88;;
25191;SDS011;13143;50.924;5.320;2023-05-29T02:19:50;23.02;;;9.93;;
25191;SDS011;13143;50.924;5.320;2023-05-29T02:22:17;20.73;;;9.65;;
25191;SDS011;13143;50.924;5.320;2023-05-29T02:24:43;22.42;;;9.88;;
25191;SDS011;13143;50.924;5.320;2023-05-29T02:27:09;23.20;;;9.30;;
25191;SDS011;13143;50.924;5.320;2023-05-29T02:29:36;15.55;;;8.63;;
25191;SDS011;13143;50.924;5.320;2023-05-29T02:32:02;22.20;;;9.60;;
25191;SDS011;13143;50.924;5.320;2023-05-29T02:34:29;20.58;;;9.82;;
25191;SDS011;13143;50.924;5.320;2023-05-29T02:36:55;18.35;;;9.13;;
25191;SDS011;13143;50.924;5.320;2023-05-29T02:39:22;28.92;;;9.35;;
25191;SDS011;13143;50.924;5.320;2023-05-29T02:41:48;24.98;;;9.20;;
25191;SDS011;13143;50.924;5.320;2023-05-29T02:44:14;19.63;;;8.10;;
25191;SDS011;13143;50.924;5.320;2023-05-29T02:46:40;23.63;;;8.40;;
25191;SDS011;13143;50.924;5.320;2023-05-29T02:49:07;20.13;;;7.60;;
25191;SDS011;13143;50.924;5.320;2023-05-29T02:51:33;23.15;;;7.22;;
25191;SDS011;13143;50.924;5.320;2023-05-29T02:53:59;24.95;;;8.32;;
25191;SDS011;13143;50.924;5.320;2023-05-29T02:56:25;21.67;;;6.68;;
25191;SDS011;13143;50.924;5.320;2023-05-29T02:58:51;25.88;;;7.35;;
25191;SDS011;13143;50.924;5.320;2023-05-29T03:01:18;21.42;;;6.97;;
25191;SDS011;13143;50.924;5.320;2023-05-29T03:03:44;22.10;;;7.25;;
25191;SDS011;13143;50.924;5.320;2023-05-29T03:06:11;24.92;;;6.78;;
25191;SDS011;13143;50.924;5.320;2023-05-29T03:08:41;25.50;;;7.45;;
25191;SDS011;13143;50.924;5.320;2023-05-29T03:11:13;24.60;;;7.15;;
25191;SDS011;13143;50.924;5.320;2023-05-29T03:13:40;22.10;;;6.47;;
25191;SDS011;13143;50.924;5.320;2023-05-29T03:16:07;23.33;;;6.18;;
25191;SDS011;13143;50.924;5.320;2023-05-29T03:18:33;22.70;;;6.82;;
25191;SDS011;13143;50.924;5.320;2023-05-29T03:21:00;27.13;;;6.32;;
25191;SDS011;13143;50.924;5.320;2023-05-29T03:23:27;21.33;;;5.93;;
25191;SDS011;13143;50.924;5.320;2023-05-29T03:25:53;22.02;;;6.07;;
25191;SDS011;13143;50.924;5.320;2023-05-29T03:28:19;19.80;;;5.13;;
25191;SDS011;13143;50.924;5.320;2023-05-29T03:30:46;26.17;;;5.93;;
25191;SDS011;13143;50.924;5.320;2023-05-29T03:33:12;19.70;;;5.45;;
25191;SDS011;13143;50.924;5.320;2023-05-29T03:35:38;25.10;;;5.72;;
25191;SDS011;13143;50.924;5.320;2023-05-29T03:38:04;17.48;;;5.68;;
25191;SDS011;13143;50.924;5.320;2023-05-29T03:40:30;17.63;;;5.43;;
25191;SDS011;13143;50.924;5.320;2023-05-29T03:42:57;22.52;;;5.72;;
25191;SDS011;13143;50.924;5.320;2023-05-29T03:45:23;22.02;;;5.63;;
25191;SDS011;13143;50.924;5.320;2023-05-29T03:47:49;18.73;;;5.35;;
25191;SDS011;13143;50.924;5.320;2023-05-29T03:50:15;18.58;;;5.05;;
25191;SDS011;13143;50.924;5.320;2023-05-29T03:52:41;19.33;;;5.53;;
25191;SDS011;13143;50.924;5.320;2023-05-29T03:55:08;20.05;;;4.93;;
25191;SDS011;13143;50.924;5.320;2023-05-29T03:57:40;21.73;;;5.10;;
25191;SDS011;13143;50.924;5.320;2023-05-29T04:00:09;20.23;;;5.30;;
25191;SDS011;13143;50.924;5.320;2023-05-29T04:02:37;25.30;;;5.03;;
25191;SDS011;13143;50.924;5.320;2023-05-29T04:05:05;21.88;;;5.13;;
25191;SDS011;13143;50.924;5.320;2023-05-29T04:07:35;25.23;;;4.93;;
25191;SDS011;13143;50.924;5.320;2023-05-29T04:10:04;23.55;;;4.90;;
25191;SDS011;13143;50.924;5.320;2023-05-29T04:12:32;24.60;;;4.72;;
25191;SDS011;13143;50.924;5.320;2023-05-29T04:14:58;20.60;;;5.45;;
25191;SDS011;13143;50.924;5.320;2023-05-29T04:17:25;26.20;;;5.63;;
25191;SDS011;13143;50.924;5.320;2023-05-29T04:19:51;23.80;;;4.68;;
25191;SDS011;13143;50.924;5.320;2023-05-29T04:22:17;18.52;;;4.75;;
25191;SDS011;13143;50.924;5.320;2023-05-29T04:24:45;22.08;;;3.70;;
25191;SDS011;13143;50.924;5.320;2023-05-29T04:27:11;19.30;;;4.53;;
25191;SDS011;13143;50.924;5.320;2023-05-29T04:29:38;22.02;;;4.90;;
25191;SDS011;13143;50.924;5.320;2023-05-29T04:32:08;28.42;;;5.10;;
25191;SDS011;13143;50.924;5.320;2023-05-29T04:34:39;24.17;;;5.40;;
25191;SDS011;13143;50.924;5.320;2023-05-29T04:37:05;16.95;;;3.70;;
25191;SDS011;13143;50.924;5.320;2023-05-29T04:39:32;26.48;;;5.43;;
25191;SDS011;13143;50.924;5.320;2023-05-29T04:41:58;26.00;;;5.47;;
25191;SDS011;13143;50.924;5.320;2023-05-29T04:44:26;28.80;;;5.55;;
25191;SDS011;13143;50.924;5.320;2023-05-29T04:46:52;16.05;;;4.97;;
25191;SDS011;13143;50.924;5.320;2023-05-29T04:49:19;22.33;;;4.63;;
25191;SDS011;13143;50.924;5.320;2023-05-29T04:51:46;28.10;;;5.03;;
25191;SDS011;13143;50.924;5.320;2023-05-29T04:54:12;21.98;;;4.85;;
25191;SDS011;13143;50.924;5.320;2023-05-29T04:56:38;25.25;;;4.68;;
25191;SDS011;13143;50.924;5.320;2023-05-29T04:59:07;29.20;;;5.20;;
25191;SDS011;13143;50.924;5.320;2023-05-29T05:01:34;19.02;;;4.35;;
25191;SDS011;13143;50.924;5.320;2023-05-29T05:04:00;27.95;;;5.10;;
25191;SDS011;13143;50.924;5.320;2023-05-29T05:06:26;23.33;;;4.95;;
25191;SDS011;13143;50.924;5.320;2023-05-29T05:08:54;26.05;;;6.10;;
25191;SDS011;13143;50.924;5.320;2023-05-29T05:11:21;36.78;;;6.00;;
25191;SDS011;13143;50.924;5.320;2023-05-29T05:13:49;23.15;;;4.43;;
25191;SDS011;13143;50.924;5.320;2023-05-29T05:16:15;22.92;;;5.20;;
25191;SDS011;13143;50.924;5.320;2023-05-29T05:18:44;29.13;;;6.50;;
25191;SDS011;13143;50.924;5.320;2023-05-29T05:21:10;28.42;;;5.72;;
25191;SDS011;13143;50.924;5.320;2023-05-29T05:23:36;28.70;;;5.32;;
25191;SDS011;13143;50.924;5.320;2023-05-29T05:26:03;13.88;;;4.30;;
25191;SDS011;13143;50.924;5.320;2023-05-29T05:28:29;27.27;;;5.32;;
25191;SDS011;13143;50.924;5.320;2023-05-29T05:30:55;28.77;;;5.32;;
25191;SDS011;13143;50.924;5.320;2023-05-29T05:33:21;25.60;;;5.10;;
25191;SDS011;13143;50.924;5.320;2023-05-29T05:35:47;20.98;;;5.55;;
25191;SDS011;13143;50.924;5.320;2023-05-29T05:38:14;26.83;;;5.85;;
25191;SDS011;13143;50.924;5.320;2023-05-29T05:40:40;31.15;;;5.47;;
25191;SDS011;13143;50.924;5.320;2023-05-29T05:43:06;24.00;;;4.85;;
25191;SDS011;13143;50.924;5.320;2023-05-29T05:45:32;21.30;;;4.68;;
25191;SDS011;13143;50.924;5.320;2023-05-29T05:47:58;31.25;;;5.57;;
25191;SDS011;13143;50.924;5.320;2023-05-29T05:50:24;25.55;;;5.88;;
25191;SDS011;13143;50.924;5.320;2023-05-29T05:52:51;28.05;;;5.00;;
25191;SDS011;13143;50.924;5.320;2023-05-29T05:55:17;28.48;;;4.97;;
25191;SDS011;13143;50.924;5.320;2023-05-29T05:57:43;17.15;;;4.88;;
25191;SDS011;13143;50.924;5.320;2023-05-29T06:00:09;25.98;;;5.80;;
25191;SDS011;13143;50.924;5.320;2023-05-29T06:02:39;27.15;;;5.30;;
25191;SDS011;13143;50.924;5.320;2023-05-29T06:05:09;26.08;;;5.40;;
25191;SDS011;13143;50.924;5.320;2023-05-29T06:07:37;28.92;;;4.63;;
25191;SDS011;13143;50.924;5.320;2023-05-29T06:10:03;27.10;;;5.72;;
25191;SDS011;13143;50.924;5.320;2023-05-29T06:12:30;27.10;;;5.72;;
25191;SDS011;13143;50.924;5.320;2023-05-29T06:14:56;26.08;;;5.60;;
25191;SDS011;13143;50.924;5.320;2023-05-29T06:17:22;25.35;;;5.35;;
25191;SDS011;13143;50.924;5.320;2023-05-29T06:19:49;20.63;;;4.97;;
25191;SDS011;13143;50.924;5.320;2023-05-29T06:22:15;15.15;;;4.78;;
25191;SDS011;13143;50.924;5.320;2023-05-29T06:24:42;31.13;;;6.70;;
25191;SDS011;13143;50.924;5.320;2023-05-29T06:27:08;20.90;;;4.72;;
25191;SDS011;13143;50.924;5.320;2023-05-29T06:29:35;26.27;;;5.45;;
25191;SDS011;13143;50.924;5.320;2023-05-29T06:32:01;24.08;;;4.40;;
25191;SDS011;13143;50.924;5.320;2023-05-29T06:34:27;26.95;;;4.68;;
25191;SDS011;13143;50.924;5.320;2023-05-29T06:36:53;32.88;;;6.22;;
25191;SDS011;13143;50.924;5.320;2023-05-29T06:39:19;24.15;;;5.88;;
25191;SDS011;13143;50.924;5.320;2023-05-29T06:41:46;26.17;;;5.10;;
25191;SDS011;13143;50.924;5.320;2023-05-29T06:44:12;18.48;;;5.00;;
25191;SDS011;13143;50.924;5.320;2023-05-29T06:46:38;23.08;;;4.93;;
25191;SDS011;13143;50.924;5.320;2023-05-29T06:49:05;31.30;;;5.88;;
25191;SDS011;13143;50.924;5.320;2023-05-29T06:51:31;29.25;;;6.25;;
25191;SDS011;13143;50.924;5.320;2023-05-29T06:53:58;25.67;;;5.18;;
25191;SDS011;13143;50.924;5.320;2023-05-29T06:56:24;24.08;;;4.63;;
25191;SDS011;13143;50.924;5.320;2023-05-29T06:58:51;25.02;;;5.72;;
25191;SDS011;13143;50.924;5.320;2023-05-29T07:01:17;23.58;;;4.88;;
25191;SDS011;13143;50.924;5.320;2023-05-29T07:03:43;20.60;;;4.93;;
25191;SDS011;13143;50.924;5.320;2023-05-29T07:06:11;24.13;;;5.03;;
25191;SDS011;13143;50.924;5.320;2023-05-29T07:08:37;32.75;;;5.93;;
25191;SDS011;13143;50.924;5.320;2023-05-29T07:11:03;21.90;;;4.97;;
25191;SDS011;13143;50.924;5.320;2023-05-29T07:13:30;26.98;;;4.97;;
25191;SDS011;13143;50.924;5.320;2023-05-29T07:15:56;19.15;;;4.68;;
25191;SDS011;13143;50.924;5.320;2023-05-29T07:18:22;23.30;;;4.72;;
25191;SDS011;13143;50.924;5.320;2023-05-29T07:20:48;26.42;;;4.95;;
25191;SDS011;13143;50.924;5.320;2023-05-29T07:23:14;26.08;;;5.15;;
25191;SDS011;13143;50.924;5.320;2023-05-29T07:25:40;24.70;;;4.85;;
25191;SDS011;13143;50.924;5.320;2023-05-29T07:28:07;25.73;;;5.70;;
25191;SDS011;13143;50.924;5.320;2023-05-29T07:30:33;25.23;;;4.85;;
25191;SDS011;13143;50.924;5.320;2023-05-29T07:32:59;27.92;;;5.45;;
25191;SDS011;13143;50.924;5.320;2023-05-29T07:35:25;27.58;;;5.40;;
25191;SDS011;13143;50.924;5.320;2023-05-29T07:37:51;19.92;;;4.57;;
25191;SDS011;13143;50.924;5.320;2023-05-29T07:40:19;24.55;;;5.38;;
25191;SDS011;13143;50.924;5.320;2023-05-29T07:42:45;23.80;;;4.88;;
25191;SDS011;13143;50.924;5.320;2023-05-29T07:45:11;25.77;;;5.60;;
25191;SDS011;13143;50.924;5.320;2023-05-29T07:47:37;24.02;;;4.35;;
25191;SDS011;13143;50.924;5.320;2023-05-29T07:50:04;24.90;;;5.57;;
25191;SDS011;13143;50.924;5.320;2023-05-29T07:52:31;24.42;;;6.18;;
25191;SDS011;13143;50.924;5.320;2023-05-29T07:54:57;23.33;;;4.93;;
25191;SDS011;13143;50.924;5.320;2023-05-29T07:57:24;19.92;;;4.65;;
25191;SDS011;13143;50.924;5.320;2023-05-29T07:59:51;25.70;;;4.63;;
25191;SDS011;13143;50.924;5.320;2023-05-29T08:02:17;24.35;;;4.30;;
25191;SDS011;13143;50.924;5.320;2023-05-29T08:04:43;26.77;;;4.82;;
25191;SDS011;13143;50.924;5.320;2023-05-29T08:07:10;25.75;;;5.43;;
25191;SDS011;13143;50.924;5.320;2023-05-29T08:09:36;22.17;;;4.82;;
25191;SDS011;13143;50.924;5.320;2023-05-29T08:12:02;23.52;;;5.07;;
25191;SDS011;13143;50.924;5.320;2023-05-29T08:14:28;26.92;;;4.97;;
25191;SDS011;13143;50.924;5.320;2023-05-29T08:16:54;23.23;;;4.82;;
25191;SDS011;13143;50.924;5.320;2023-05-29T08:19:21;23.48;;;4.70;;
25191;SDS011;13143;50.924;5.320;2023-05-29T08:21:47;20.40;;;4.57;;
25191;SDS011;13143;50.924;5.320;2023-05-29T08:24:13;23.70;;;5.63;;
25191;SDS011;13143;50.924;5.320;2023-05-29T08:26:39;25.90;;;5.38;;
25191;SDS011;13143;50.924;5.320;2023-05-29T08:29:05;20.70;;;4.53;;
25191;SDS011;13143;50.924;5.320;2023-05-29T08:31:32;26.80;;;5.43;;
25191;SDS011;13143;50.924;5.320;2023-05-29T08:33:58;21.30;;;5.47;;
25191;SDS011;13143;50.924;5.320;2023-05-29T08:36:24;21.35;;;5.00;;
25191;SDS011;13143;50.924;5.320;2023-05-29T08:38:51;18.80;;;4.85;;
25191;SDS011;13143;50.924;5.320;2023-05-29T08:41:21;21.05;;;5.35;;
25191;SDS011;13143;50.924;5.320;2023-05-29T08:43:50;23.73;;;4.88;;
25191;SDS011;13143;50.924;5.320;2023-05-29T08:46:18;23.30;;;4.82;;
25191;SDS011;13143;50.924;5.320;2023-05-29T08:48:48;25.20;;;5.55;;
25191;SDS011;13143;50.924;5.320;2023-05-29T08:51:21;26.05;;;5.68;;
25191;SDS011;13143;50.924;5.320;2023-05-29T08:53:54;20.55;;;5.43;;
25191;SDS011;13143;50.924;5.320;2023-05-29T08:56:22;23.40;;;5.55;;
25191;SDS011;13143;50.924;5.320;2023-05-29T08:58:48;24.77;;;5.30;;
25191;SDS011;13143;50.924;5.320;2023-05-29T09:01:16;23.08;;;5.35;;
25191;SDS011;13143;50.924;5.320;2023-05-29T09:03:42;20.55;;;4.57;;
25191;SDS011;13143;50.924;5.320;2023-05-29T09:06:09;25.00;;;6.18;;
25191;SDS011;13143;50.924;5.320;2023-05-29T09:08:35;24.40;;;5.20;;
25191;SDS011;13143;50.924;5.320;2023-05-29T09:11:02;26.20;;;5.18;;
25191;SDS011;13143;50.924;5.320;2023-05-29T09:13:28;20.65;;;5.03;;
25191;SDS011;13143;50.924;5.320;2023-05-29T09:15:58;23.73;;;5.78;;
25191;SDS011;13143;50.924;5.320;2023-05-29T09:18:28;19.88;;;5.10;;
25191;SDS011;13143;50.924;5.320;2023-05-29T09:20:58;29.10;;;6.30;;
25191;SDS011;13143;50.924;5.320;2023-05-29T09:23:25;19.33;;;4.90;;
25191;SDS011;13143;50.924;5.320;2023-05-29T09:25:52;26.73;;;5.80;;
25191;SDS011;13143;50.924;5.320;2023-05-29T09:28:22;28.10;;;5.80;;
25191;SDS011;13143;50.924;5.320;2023-05-29T09:30:52;20.52;;;5.25;;
25191;SDS011;13143;50.924;5.320;2023-05-29T09:33:18;29.55;;;6.47;;
25191;SDS011;13143;50.924;5.320;2023-05-29T09:35:49;21.33;;;4.80;;
25191;SDS011;13143;50.924;5.320;2023-05-29T09:38:16;22.38;;;6.20;;
25191;SDS011;13143;50.924;5.320;2023-05-29T09:40:43;22.35;;;5.38;;
25191;SDS011;13143;50.924;5.320;2023-05-29T09:43:13;18.83;;;5.07;;
25191;SDS011;13143;50.924;5.320;2023-05-29T09:45:44;17.05;;;4.78;;
25191;SDS011;13143;50.924;5.320;2023-05-29T09:48:18;18.85;;;4.95;;
25191;SDS011;13143;50.924;5.320;2023-05-29T09:50:48;22.60;;;5.07;;
25191;SDS011;13143;50.924;5.320;2023-05-29T09:53:22;14.00;;;4.15;;
25191;SDS011;13143;50.924;5.320;2023-05-29T09:55:50;18.20;;;4.63;;
25191;SDS011;13143;50.924;5.320;2023-05-29T09:58:17;17.55;;;5.63;;
25191;SDS011;13143;50.924;5.320;2023-05-29T10:00:44;22.58;;;4.93;;
25191;SDS011;13143;50.924;5.320;2023-05-29T10:03:11;16.85;;;4.20;;
25191;SDS011;13143;50.924;5.320;2023-05-29T10:05:38;20.58;;;4.53;;
25191;SDS011;13143;50.924;5.320;2023-05-29T10:08:14;16.23;;;4.65;;
25191;SDS011;13143;50.924;5.320;2023-05-29T10:10:46;22.42;;;5.10;;
25191;SDS011;13143;50.924;5.320;2023-05-29T10:13:17;21.60;;;5.72;;
25191;SDS011;13143;50.924;5.320;2023-05-29T10:15:45;23.58;;;5.53;;
25191;SDS011;13143;50.924;5.320;2023-05-29T10:20:39;19.85;;;5.05;;
25191;SDS011;13143;50.924;5.320;2023-05-29T10:23:07;11.65;;;4.80;;
25191;SDS011;13143;50.924;5.320;2023-05-29T10:25:35;19.40;;;4.53;;
25191;SDS011;13143;50.924;5.320;2023-05-29T10:28:02;17.17;;;4.00;;
25191;SDS011;13143;50.924;5.320;2023-05-29T10:30:39;24.35;;;4.93;;
25191;SDS011;13143;50.924;5.320;2023-05-29T10:35:46;18.92;;;3.97;;
25191;SDS011;13143;50.924;5.320;2023-05-29T10:38:19;16.70;;;4.50;;
25191;SDS011;13143;50.924;5.320;2023-05-29T10:40:46;22.13;;;5.35;;
25191;SDS011;13143;50.924;5.320;2023-05-29T10:43:31;20.02;;;4.53;;
25191;SDS011;13143;50.924;5.320;2023-05-29T10:45:59;16.70;;;4.32;;
25191;SDS011;13143;50.924;5.320;2023-05-29T10:48:37;18.08;;;4.07;;
25191;SDS011;13143;50.924;5.320;2023-05-29T10:51:06;14.20;;;4.35;;
25191;SDS011;13143;50.924;5.320;2023-05-29T10:53:33;23.48;;;4.75;;
25191;SDS011;13143;50.924;5.320;2023-05-29T10:56:07;16.52;;;4.93;;
25191;SDS011;13143;50.924;5.320;2023-05-29T10:58:36;18.67;;;4.28;;
25191;SDS011;13143;50.924;5.320;2023-05-29T11:01:02;18.90;;;4.43;;
25191;SDS011;13143;50.924;5.320;2023-05-29T11:03:32;22.25;;;4.60;;
25191;SDS011;13143;50.924;5.320;2023-05-29T11:06:02;13.98;;;3.88;;
25191;SDS011;13143;50.924;5.320;2023-05-29T11:08:34;21.75;;;4.47;;
25191;SDS011;13143;50.924;5.320;2023-05-29T11:11:01;23.05;;;5.53;;
25191;SDS011;13143;50.924;5.320;2023-05-29T11:13:32;16.08;;;4.05;;
25191;SDS011;13143;50.924;5.320;2023-05-29T11:16:19;15.85;;;3.90;;
25191;SDS011;13143;50.924;5.320;2023-05-29T11:18:51;18.73;;;4.35;;
25191;SDS011;13143;50.924;5.320;2023-05-29T11:21:22;17.40;;;4.18;;
25191;SDS011;13143;50.924;5.320;2023-05-29T11:23:57;14.80;;;4.20;;
25191;SDS011;13143;50.924;5.320;2023-05-29T11:26:26;12.82;;;3.75;;
25191;SDS011;13143;50.924;5.320;2023-05-29T11:28:56;19.20;;;4.70;;
25191;SDS011;13143;50.924;5.320;2023-05-29T11:31:23;16.40;;;4.07;;
25191;SDS011;13143;50.924;5.320;2023-05-29T11:33:51;13.70;;;4.18;;
25191;SDS011;13143;50.924;5.320;2023-05-29T11:36:23;19.60;;;4.30;;
25191;SDS011;13143;50.924;5.320;2023-05-29T11:38:50;14.43;;;4.20;;
25191;SDS011;13143;50.924;5.320;2023-05-29T11:41:17;22.45;;;4.47;;
25191;SDS011;13143;50.924;5.320;2023-05-29T11:43:43;10.82;;;4.13;;
25191;SDS011;13143;50.924;5.320;2023-05-29T11:46:18;16.70;;;4.25;;
25191;SDS011;13143;50.924;5.320;2023-05-29T11:48:46;13.93;;;4.35;;
25191;SDS011;13143;50.924;5.320;2023-05-29T11:51:12;14.98;;;4.38;;
25191;SDS011;13143;50.924;5.320;2023-05-29T11:53:42;17.02;;;4.13;;
25191;SDS011;13143;50.924;5.320;2023-05-29T11:56:09;14.38;;;4.32;;
25191;SDS011;13143;50.924;5.320;2023-05-29T11:58:39;20.67;;;4.40;;
25191;SDS011;13143;50.924;5.320;2023-05-29T12:01:06;16.23;;;4.15;;
25191;SDS011;13143;50.924;5.320;2023-05-29T12:06:06;17.13;;;4.15;;
25191;SDS011;13143;50.924;5.320;2023-05-29T12:08:33;13.18;;;3.92;;
25191;SDS011;13143;50.924;5.320;2023-05-29T12:11:01;17.08;;;5.25;;
25191;SDS011;13143;50.924;5.320;2023-05-29T12:13:27;13.95;;;3.85;;
25191;SDS011;13143;50.924;5.320;2023-05-29T12:15:56;16.27;;;4.22;;
25191;SDS011;13143;50.924;5.320;2023-05-29T12:18:28;16.38;;;4.20;;
25191;SDS011;13143;50.924;5.320;2023-05-29T12:21:01;12.52;;;3.67;;
25191;SDS011;13143;50.924;5.320;2023-05-29T12:23:29;12.50;;;3.47;;
25191;SDS011;13143;50.924;5.320;2023-05-29T12:25:56;12.50;;;4.15;;
25191;SDS011;13143;50.924;5.320;2023-05-29T12:28:23;14.70;;;4.32;;
25191;SDS011;13143;50.924;5.320;2023-05-29T12:30:57;16.67;;;4.18;;
25191;SDS011;13143;50.924;5.320;2023-05-29T12:33:25;17.48;;;4.00;;
25191;SDS011;13143;50.924;5.320;2023-05-29T12:35:53;14.20;;;3.58;;
25191;SDS011;13143;50.924;5.320;2023-05-29T12:38:20;10.85;;;3.53;;
25191;SDS011;13143;50.924;5.320;2023-05-29T12:40:48;14.25;;;3.47;;
25191;SDS011;13143;50.924;5.320;2023-05-29T12:43:15;19.30;;;4.15;;
25191;SDS011;13143;50.924;5.320;2023-05-29T12:45:42;15.25;;;4.50;;
25191;SDS011;13143;50.924;5.320;2023-05-29T12:48:08;21.13;;;4.15;;
25191;SDS011;13143;50.924;5.320;2023-05-29T12:50:39;9.98;;;3.75;;
25191;SDS011;13143;50.924;5.320;2023-05-29T12:53:12;13.73;;;4.07;;
25191;SDS011;13143;50.924;5.320;2023-05-29T12:55:41;17.95;;;4.32;;
25191;SDS011;13143;50.924;5.320;2023-05-29T12:58:09;20.38;;;4.55;;
25191;SDS011;13143;50.924;5.320;2023-05-29T13:00:43;18.80;;;3.80;;
25191;SDS011;13143;50.924;5.320;2023-05-29T13:03:11;16.10;;;3.75;;
25191;SDS011;13143;50.924;5.320;2023-05-29T13:05:37;16.20;;;4.32;;
25191;SDS011;13143;50.924;5.320;2023-05-29T13:08:05;16.80;;;4.25;;
25191;SDS011;13143;50.924;5.320;2023-05-29T13:10:33;19.35;;;4.50;;
25191;SDS011;13143;50.924;5.320;2023-05-29T13:13:02;20.15;;;5.18;;
25191;SDS011;13143;50.924;5.320;2023-05-29T13:15:28;17.38;;;4.38;;
25191;SDS011;13143;50.924;5.320;2023-05-29T13:17:54;17.98;;;5.05;;
25191;SDS011;13143;50.924;5.320;2023-05-29T13:20:21;20.27;;;4.10;;
25191;SDS011;13143;50.924;5.320;2023-05-29T13:22:47;16.55;;;4.30;;
25191;SDS011;13143;50.924;5.320;2023-05-29T13:25:15;12.93;;;3.80;;
25191;SDS011;13143;50.924;5.320;2023-05-29T13:27:44;18.60;;;4.53;;
25191;SDS011;13143;50.924;5.320;2023-05-29T13:30:11;13.77;;;4.28;;
25191;SDS011;13143;50.924;5.320;2023-05-29T13:32:38;19.95;;;4.70;;
25191;SDS011;13143;50.924;5.320;2023-05-29T13:35:05;11.55;;;4.03;;
25191;SDS011;13143;50.924;5.320;2023-05-29T13:37:31;15.30;;;3.75;;
25191;SDS011;13143;50.924;5.320;2023-05-29T13:39:57;19.35;;;4.47;;
25191;SDS011;13143;50.924;5.320;2023-05-29T13:42:24;14.93;;;4.30;;
25191;SDS011;13143;50.924;5.320;2023-05-29T13:44:50;15.73;;;4.13;;
25191;SDS011;13143;50.924;5.320;2023-05-29T13:47:18;18.73;;;3.83;;
25191;SDS011;13143;50.924;5.320;2023-05-29T13:49:44;14.70;;;4.25;;
25191;SDS011;13143;50.924;5.320;2023-05-29T13:52:10;19.63;;;4.13;;
25191;SDS011;13143;50.924;5.320;2023-05-29T13:54:36;17.02;;;4.43;;
25191;SDS011;13143;50.924;5.320;2023-05-29T13:57:03;10.98;;;3.47;;
25191;SDS011;13143;50.924;5.320;2023-05-29T13:59:30;13.88;;;4.00;;
25191;SDS011;13143;50.924;5.320;2023-05-29T14:01:56;17.35;;;3.63;;
25191;SDS011;13143;50.924;5.320;2023-05-29T14:04:23;19.88;;;4.15;;
25191;SDS011;13143;50.924;5.320;2023-05-29T14:06:50;14.05;;;3.97;;
25191;SDS011;13143;50.924;5.320;2023-05-29T14:09:16;16.95;;;3.90;;
25191;SDS011;13143;50.924;5.320;2023-05-29T14:11:48;21.77;;;4.03;;
25191;SDS011;13143;50.924;5.320;2023-05-29T14:14:14;18.15;;;4.45;;
25191;SDS011;13143;50.924;5.320;2023-05-29T14:16:41;19.55;;;3.75;;
25191;SDS011;13143;50.924;5.320;2023-05-29T14:19:07;17.35;;;4.03;;
25191;SDS011;13143;50.924;5.320;2023-05-29T14:21:33;18.17;;;3.47;;
25191;SDS011;13143;50.924;5.320;2023-05-29T14:24:01;15.98;;;4.18;;
25191;SDS011;13143;50.924;5.320;2023-05-29T14:26:27;18.58;;;4.10;;
25191;SDS011;13143;50.924;5.320;2023-05-29T14:28:53;14.85;;;4.10;;
25191;SDS011;13143;50.924;5.320;2023-05-29T14:31:21;13.50;;;3.85;;
25191;SDS011;13143;50.924;5.320;2023-05-29T14:33:47;15.73;;;4.53;;
25191;SDS011;13143;50.924;5.320;2023-05-29T14:36:13;12.98;;;4.13;;
25191;SDS011;13143;50.924;5.320;2023-05-29T14:38:39;11.63;;;3.50;;
25191;SDS011;13143;50.924;5.320;2023-05-29T14:41:06;14.35;;;3.95;;
25191;SDS011;13143;50.924;5.320;2023-05-29T14:43:32;17.30;;;3.50;;
25191;SDS011;13143;50.924;5.320;2023-05-29T14:45:58;18.10;;;3.90;;
25191;SDS011;13143;50.924;5.320;2023-05-29T14:48:24;16.20;;;4.10;;